createdAt,value
2023-02-27T00:02:01.353Z,94198.81
2023-02-27T00:04:28.180Z,94215.72
2023-02-27T00:06:55.076Z,94204.88
2023-02-27T00:09:21.783Z,94216.53
2023-02-27T00:11:48.465Z,94207.53
2023-02-27T00:14:15.241Z,94198.03
2023-02-27T00:16:42.058Z,94201.91
2023-02-27T00:19:08.718Z,94213.16
2023-02-27T00:21:36.947Z,94213.13
2023-02-27T00:24:04.672Z,94194.59
2023-02-27T00:26:31.657Z,94210.63
2023-02-27T00:28:58.364Z,94199.28
2023-02-27T00:31:25.555Z,94203.94
2023-02-27T00:33:52.418Z,94193.84
2023-02-27T00:36:19.283Z,94198.19
2023-02-27T00:38:45.986Z,94216.06
2023-02-27T00:41:12.749Z,94219.56
2023-02-27T00:43:39.583Z,94210.03
2023-02-27T00:46:06.702Z,94203.38
2023-02-27T00:48:33.528Z,94197.75
2023-02-27T00:51:01.680Z,94209.91
2023-02-27T00:53:28.632Z,94194.03
2023-02-27T00:55:55.546Z,94208.47
2023-02-27T00:58:22.340Z,94212.16
2023-02-27T01:00:50.321Z,94223.78
2023-02-27T01:03:17.188Z,94203.81
2023-02-27T01:05:43.909Z,94191.09
2023-02-27T01:08:10.696Z,94211.63
2023-02-27T01:10:37.519Z,94209.91
2023-02-27T01:13:06.704Z,94213.19
2023-02-27T01:15:35.301Z,94221.19
2023-02-27T01:18:03.640Z,94216.72
2023-02-27T01:20:31.447Z,94211.78
2023-02-27T01:22:58.200Z,94212.31
2023-02-27T01:25:25.117Z,94211.44
2023-02-27T01:27:52.802Z,94208.06
2023-02-27T01:30:19.695Z,94226.41
2023-02-27T01:32:47.575Z,94218.09
2023-02-27T01:35:14.501Z,94213.53
2023-02-27T01:37:41.318Z,94189.72
2023-02-27T01:40:09.467Z,94226.66
2023-02-27T01:42:36.407Z,94228.81
2023-02-27T01:45:12.123Z,94248.00
2023-02-27T01:47:44.436Z,94253.22
2023-02-27T01:50:12.346Z,94273.06
2023-02-27T01:52:40.819Z,94298.50
2023-02-27T01:55:09.524Z,94275.41
2023-02-27T01:57:36.512Z,94265.59
2023-02-27T02:00:05.981Z,94283.03
2023-02-27T02:02:43.719Z,94272.09
2023-02-27T02:05:13.507Z,94259.78
2023-02-27T02:07:42.051Z,94266.91
2023-02-27T02:10:11.985Z,94272.59
2023-02-27T02:12:40.634Z,94282.66
2023-02-27T02:15:09.636Z,94311.09
2023-02-27T02:18:04.272Z,94323.50
2023-02-27T02:20:54.721Z,94310.94
2023-02-27T02:23:42.621Z,94326.81
2023-02-27T02:26:58.001Z,94401.53
2023-02-27T02:30:06.696Z,94510.00
2023-02-27T02:32:39.529Z,94471.38
2023-02-27T02:35:34.132Z,94481.47
2023-02-27T02:38:06.716Z,94476.44
2023-02-27T02:41:03.367Z,94466.84
2023-02-27T02:43:52.494Z,94470.56
2023-02-27T02:46:26.010Z,94472.72
2023-02-27T02:48:55.664Z,94477.00
2023-02-27T02:51:42.073Z,94503.75
2023-02-27T02:54:08.764Z,94517.50
2023-02-27T02:56:45.674Z,94524.13
2023-02-27T02:59:34.634Z,94525.56
2023-02-27T03:02:06.324Z,94528.16
2023-02-27T03:04:49.947Z,94524.31
2023-02-27T03:07:34.352Z,94544.41
2023-02-27T03:10:26.229Z,94557.69
2023-02-27T03:13:31.054Z,94549.84
2023-02-27T03:16:07.887Z,94540.50
2023-02-27T03:18:44.431Z,94549.28
2023-02-27T03:21:18.749Z,94544.69
2023-02-27T03:23:48.013Z,94570.75
2023-02-27T03:26:19.818Z,94568.69
2023-02-27T03:29:03.850Z,94574.78
2023-02-27T03:32:02.200Z,94603.19
2023-02-27T03:34:33.135Z,94618.03
2023-02-27T03:37:08.551Z,94636.25
2023-02-27T03:39:35.391Z,94650.88
2023-02-27T03:42:10.259Z,94652.53
2023-02-27T03:45:07.469Z,94649.53
2023-02-27T03:47:35.813Z,94651.31
2023-02-27T03:50:03.309Z,94661.19
2023-02-27T03:52:31.148Z,94665.38
2023-02-27T03:55:26.188Z,94656.38
2023-02-27T03:57:53.716Z,94636.97
2023-02-27T04:00:24.790Z,94652.00
2023-02-27T04:02:54.398Z,94667.47
2023-02-27T04:05:27.139Z,94675.81
2023-02-27T04:08:13.152Z,94672.56
2023-02-27T04:10:40.853Z,94668.03
2023-02-27T04:13:23.009Z,94676.94
2023-02-27T04:16:01.782Z,94696.03
2023-02-27T04:18:49.385Z,94696.06
2023-02-27T04:21:25.836Z,94700.06
2023-02-27T04:24:13.505Z,94702.72
2023-02-27T04:27:14.345Z,94724.34
2023-02-27T04:29:43.654Z,94730.25
2023-02-27T04:32:26.203Z,94735.91
2023-02-27T04:35:01.908Z,94736.31
2023-02-27T04:37:37.446Z,94740.19
2023-02-27T04:40:10.333Z,94748.44
2023-02-27T04:42:46.098Z,94762.75
2023-02-27T04:45:16.788Z,94779.22
2023-02-27T04:47:49.554Z,94775.41
2023-02-27T04:50:24.951Z,94775.75
2023-02-27T04:53:02.052Z,94760.75
2023-02-27T04:55:35.698Z,94798.03
2023-02-27T04:58:10.245Z,94791.59
2023-02-27T05:00:39.862Z,94794.53
2023-02-27T05:03:19.669Z,94785.09
2023-02-27T05:05:49.312Z,94793.75
2023-02-27T05:08:28.854Z,94808.56
2023-02-27T05:11:20.864Z,94814.25
2023-02-27T05:13:51.956Z,94822.19
2023-02-27T05:17:03.999Z,94832.66
2023-02-27T05:19:32.654Z,94815.91
2023-02-27T05:22:05.436Z,94832.06
2023-02-27T05:24:35.169Z,94839.28
2023-02-27T05:27:17.559Z,94845.63
2023-02-27T05:29:59.510Z,94859.81
2023-02-27T05:32:34.088Z,94856.50
2023-02-27T05:35:08.935Z,94862.13
2023-02-27T05:37:59.157Z,94864.16
2023-02-27T05:40:34.278Z,94853.06
2023-02-27T05:43:19.266Z,94862.41
2023-02-27T05:45:50.341Z,94858.09
2023-02-27T05:48:29.782Z,94860.31
2023-02-27T05:50:59.308Z,94867.19
2023-02-27T05:53:33.543Z,94868.75
2023-02-27T05:56:02.888Z,94866.19
2023-02-27T05:58:41.613Z,94864.09
2023-02-27T06:01:10.619Z,94883.59
2023-02-27T06:03:39.308Z,94887.16
2023-02-27T06:06:11.269Z,94891.88
2023-02-27T06:08:38.204Z,94897.28
2023-02-27T06:11:05.260Z,94901.53
2023-02-27T06:13:32.074Z,94902.06
2023-02-27T06:15:59.995Z,94901.28
2023-02-27T06:18:26.779Z,94910.44
2023-02-27T06:20:53.937Z,94903.63
2023-02-27T06:23:20.737Z,94902.06
2023-02-27T06:25:48.899Z,94896.28
2023-02-27T06:28:15.964Z,94906.97
2023-02-27T06:30:43.914Z,94909.34
2023-02-27T06:33:12.458Z,94912.00
2023-02-27T06:35:39.547Z,94914.56
2023-02-27T06:38:06.337Z,94930.34
2023-02-27T06:40:33.317Z,94930.34
2023-02-27T06:42:59.994Z,94943.50
2023-02-27T06:45:26.712Z,94935.88
2023-02-27T06:47:53.619Z,94932.97
2023-02-27T06:50:20.440Z,94937.44
2023-02-27T06:52:47.180Z,94934.88
2023-02-27T06:55:19.898Z,94939.81
2023-02-27T06:57:47.759Z,94944.50
2023-02-27T07:00:16.350Z,94940.34
2023-02-27T07:02:44.109Z,94933.19
2023-02-27T07:05:12.134Z,94935.28
2023-02-27T07:07:39.569Z,94927.69
2023-02-27T07:10:11.735Z,94928.44
2023-02-27T07:12:39.692Z,94934.97
2023-02-27T07:15:07.646Z,94939.44
2023-02-27T07:17:34.689Z,94937.59
2023-02-27T07:20:01.495Z,94927.69
2023-02-27T07:22:28.381Z,94945.81
2023-02-27T07:24:55.096Z,94955.06
2023-02-27T07:27:21.958Z,94946.00
2023-02-27T07:29:48.999Z,94955.25
2023-02-27T07:32:15.890Z,94965.50
2023-02-27T07:34:42.744Z,94962.47
2023-02-27T07:37:09.485Z,94962.13
2023-02-27T07:39:36.358Z,94958.31
2023-02-27T07:42:03.233Z,94956.28
2023-02-27T07:44:30.316Z,94951.88
2023-02-27T07:46:56.980Z,94968.25
2023-02-27T07:49:23.683Z,94967.91
2023-02-27T07:51:50.608Z,94979.81
2023-02-27T07:54:17.415Z,94964.03
2023-02-27T07:56:44.952Z,94969.25
2023-02-27T07:59:11.645Z,94976.56
2023-02-27T08:01:38.539Z,94974.94
2023-02-27T08:04:05.567Z,94973.09
2023-02-27T08:06:32.403Z,94983.94
2023-02-27T08:08:59.290Z,94993.81
2023-02-27T08:11:26.331Z,94979.41
2023-02-27T08:14:00.449Z,94981.44
2023-02-27T08:16:28.585Z,94972.16
2023-02-27T08:18:55.949Z,94970.63
2023-02-27T08:21:23.115Z,94982.25
2023-02-27T08:23:49.845Z,94986.22
2023-02-27T08:26:16.533Z,94996.38
2023-02-27T08:28:43.316Z,94989.09
2023-02-27T08:31:10.180Z,94980.00
2023-02-27T08:33:36.919Z,94966.91
2023-02-27T08:36:03.861Z,94946.69
2023-02-27T08:38:30.701Z,94969.47
2023-02-27T08:40:57.460Z,94976.38
2023-02-27T08:43:24.558Z,94970.00
2023-02-27T08:45:51.762Z,94979.59
2023-02-27T08:48:18.990Z,94966.81
2023-02-27T08:50:46.858Z,94958.09
2023-02-27T08:53:13.995Z,94959.06
2023-02-27T08:55:41.265Z,94973.53
2023-02-27T08:58:09.283Z,94977.75
2023-02-27T09:00:36.229Z,94972.31
2023-02-27T09:03:03.130Z,94983.59
2023-02-27T09:05:30.146Z,94994.16
2023-02-27T09:07:57.024Z,94995.09
2023-02-27T09:10:23.879Z,95006.31
2023-02-27T09:12:50.594Z,95005.75
2023-02-27T09:15:18.598Z,95003.69
2023-02-27T09:17:45.558Z,95004.53
2023-02-27T09:20:12.894Z,95022.63
2023-02-27T09:22:40.512Z,95011.53
2023-02-27T09:25:07.939Z,95023.13
2023-02-27T09:27:35.400Z,95018.31
2023-02-27T09:30:02.317Z,95013.56
2023-02-27T09:32:29.351Z,95009.50
2023-02-27T09:34:56.262Z,95018.47
2023-02-27T09:37:25.001Z,95013.16
2023-02-27T09:39:52.331Z,94997.03
2023-02-27T09:42:22.746Z,95005.81
2023-02-27T09:44:52.386Z,94986.88
2023-02-27T09:47:34.840Z,95020.53
2023-02-27T09:50:05.377Z,94997.09
2023-02-27T09:52:36.259Z,95010.94
2023-02-27T09:55:11.736Z,95029.00
2023-02-27T09:57:54.969Z,95009.50
2023-02-27T10:00:51.599Z,95024.75
2023-02-27T10:03:39.306Z,95035.97
2023-02-27T10:06:09.084Z,95029.69
2023-02-27T10:08:44.208Z,95039.28
2023-02-27T10:11:17.269Z,95046.03
2023-02-27T10:14:05.520Z,95028.50
2023-02-27T10:16:34.316Z,95018.88
2023-02-27T10:19:12.879Z,95051.72
2023-02-27T10:21:44.433Z,95033.03
2023-02-27T10:24:17.359Z,95031.56
2023-02-27T10:26:45.338Z,95046.41
2023-02-27T10:29:27.376Z,95037.34
2023-02-27T10:32:03.870Z,95025.38
2023-02-27T10:34:32.904Z,95047.84
2023-02-27T10:37:05.249Z,95013.16
2023-02-27T10:39:47.587Z,95028.28
2023-02-27T10:42:16.447Z,95013.16
2023-02-27T10:44:43.262Z,95019.03
2023-02-27T10:47:16.549Z,95015.50
2023-02-27T10:49:44.181Z,94989.94
2023-02-27T10:52:14.171Z,95019.69
2023-02-27T10:54:42.609Z,95035.50
2023-02-27T10:57:30.569Z,95021.81
2023-02-27T11:00:06.769Z,95027.44
2023-02-27T11:02:39.707Z,95022.75
2023-02-27T11:05:34.296Z,95022.63
2023-02-27T11:08:30.910Z,95013.94
2023-02-27T11:10:59.676Z,95008.22
2023-02-27T11:13:35.850Z,94995.13
2023-02-27T11:16:15.868Z,94995.97
2023-02-27T11:18:45.073Z,94993.53
2023-02-27T11:21:26.315Z,94999.63
2023-02-27T11:24:07.676Z,94993.22
2023-02-27T11:26:39.310Z,94979.47
2023-02-27T11:29:19.199Z,94974.97
2023-02-27T11:31:52.031Z,94983.00
2023-02-27T11:34:23.932Z,94988.41
2023-02-27T11:36:57.739Z,94980.28
2023-02-27T11:39:47.129Z,94968.00
2023-02-27T11:42:18.850Z,94977.22
2023-02-27T11:44:53.680Z,94967.03
2023-02-27T11:47:26.259Z,94988.47
2023-02-27T11:50:09.059Z,94997.63
2023-02-27T11:53:01.659Z,94992.59
2023-02-27T11:55:30.572Z,94994.19
2023-02-27T11:58:22.049Z,94983.31
2023-02-27T12:00:58.732Z,94971.16
2023-02-27T12:03:31.762Z,94979.06
2023-02-27T12:06:04.867Z,94983.03
2023-02-27T12:09:07.543Z,94969.91
2023-02-27T12:11:44.242Z,94969.34
2023-02-27T12:14:24.959Z,94968.03
2023-02-27T12:17:02.149Z,94967.41
2023-02-27T12:19:34.992Z,94967.63
2023-02-27T12:22:09.335Z,94974.22
2023-02-27T12:24:47.568Z,94973.50
2023-02-27T12:27:26.217Z,94971.75
2023-02-27T12:30:07.672Z,94967.03
2023-02-27T12:32:50.775Z,94973.78
2023-02-27T12:35:24.080Z,94973.13
2023-02-27T12:37:51.338Z,94973.72
2023-02-27T12:40:20.007Z,94962.38
2023-02-27T12:43:00.861Z,94953.84
2023-02-27T12:46:12.859Z,94957.56
2023-02-27T12:48:45.797Z,94970.66
2023-02-27T12:51:18.151Z,94970.31
2023-02-27T12:54:06.418Z,94968.69
2023-02-27T12:56:51.620Z,94971.47
2023-02-27T12:59:47.595Z,94956.69
2023-02-27T13:02:42.612Z,94958.38
2023-02-27T13:05:44.370Z,94957.56
2023-02-27T13:08:46.906Z,94972.25
2023-02-27T13:11:28.978Z,94964.72
2023-02-27T13:14:12.844Z,94976.94
2023-02-27T13:16:50.762Z,94973.66
2023-02-27T13:19:26.595Z,94980.25
2023-02-27T13:21:54.719Z,94974.16
2023-02-27T13:24:27.762Z,94975.03
2023-02-27T13:27:12.810Z,94976.00
2023-02-27T13:29:47.596Z,94958.25
2023-02-27T13:32:36.511Z,94955.19
2023-02-27T13:35:49.155Z,94946.22
2023-02-27T13:38:33.968Z,94947.66
2023-02-27T13:41:28.786Z,94942.28
2023-02-27T13:44:00.314Z,94938.69
2023-02-27T13:46:29.612Z,94944.03
2023-02-27T13:49:05.221Z,94961.78
2023-02-27T13:51:35.052Z,94970.13
2023-02-27T13:54:15.286Z,94964.34
2023-02-27T13:56:48.029Z,94981.16
2023-02-27T13:59:44.345Z,94994.63
2023-02-27T14:02:11.335Z,94998.25
2023-02-27T14:05:00.702Z,94989.91
2023-02-27T14:07:33.691Z,94997.44
2023-02-27T14:10:05.550Z,95027.34
2023-02-27T14:12:45.930Z,95007.84
2023-02-27T14:15:22.062Z,94993.94
2023-02-27T14:18:12.345Z,94997.78
2023-02-27T14:20:42.639Z,95016.91
2023-02-27T14:23:18.010Z,94997.31
2023-02-27T14:25:52.595Z,95000.25
2023-02-27T14:28:31.500Z,95031.50
2023-02-27T14:31:03.133Z,95031.56
2023-02-27T14:33:45.645Z,95039.00
2023-02-27T14:36:20.071Z,95030.69
2023-02-27T14:38:48.194Z,95046.47
2023-02-27T14:41:49.540Z,95020.47
2023-02-27T14:44:25.277Z,95042.91
2023-02-27T14:46:57.427Z,95067.84
2023-02-27T14:49:35.557Z,95057.53
2023-02-27T14:52:25.929Z,95027.53
2023-02-27T14:54:53.762Z,95041.41
2023-02-27T14:57:27.089Z,95059.94
2023-02-27T14:59:54.673Z,95050.47
2023-02-27T15:02:26.072Z,95050.81
2023-02-27T15:05:13.666Z,95082.31
2023-02-27T15:07:40.768Z,95099.47
2023-02-27T15:10:09.754Z,95093.09
2023-02-27T15:12:39.375Z,95101.03
2023-02-27T15:15:09.052Z,95115.88
2023-02-27T15:17:43.009Z,95125.78
2023-02-27T15:20:31.271Z,95117.09
2023-02-27T15:22:59.895Z,95107.44
2023-02-27T15:25:32.832Z,95114.47
2023-02-27T15:28:06.091Z,95114.63
2023-02-27T15:30:33.376Z,95136.72
2023-02-27T15:33:02.874Z,95145.63
2023-02-27T15:35:37.480Z,95148.75
2023-02-27T15:38:04.398Z,95153.41
2023-02-27T15:40:33.085Z,95155.47
2023-02-27T15:43:01.076Z,95160.31
2023-02-27T15:45:31.889Z,95168.16
2023-02-27T15:47:59.340Z,95157.47
2023-02-27T15:50:31.411Z,95164.81
2023-02-27T15:53:09.495Z,95167.66
2023-02-27T15:55:42.885Z,95180.72
2023-02-27T15:58:30.494Z,95183.63
2023-02-27T16:01:02.246Z,95196.91
2023-02-27T16:03:53.387Z,95198.38
2023-02-27T16:06:27.631Z,95202.22
2023-02-27T16:08:57.766Z,95199.06
2023-02-27T16:11:30.201Z,95197.50
2023-02-27T16:13:57.908Z,95204.22
2023-02-27T16:16:37.616Z,95203.72
2023-02-27T16:19:26.241Z,95204.88
2023-02-27T16:22:16.069Z,95220.94
2023-02-27T16:24:43.720Z,95221.19
2023-02-27T16:27:23.804Z,95216.41
2023-02-27T16:29:51.514Z,95217.22
2023-02-27T16:32:28.385Z,95220.59
2023-02-27T16:35:08.867Z,95221.94
2023-02-27T16:37:38.656Z,95215.91
2023-02-27T16:40:18.949Z,95221.72
2023-02-27T16:42:46.217Z,95228.53
2023-02-27T16:45:17.395Z,95223.81
2023-02-27T16:47:45.382Z,95233.00
2023-02-27T16:50:33.642Z,95221.66
2023-02-27T16:53:01.035Z,95233.31
2023-02-27T16:55:28.129Z,95236.66
2023-02-27T16:57:55.069Z,95238.59
2023-02-27T17:00:23.268Z,95228.47
2023-02-27T17:02:51.173Z,95245.19
2023-02-27T17:05:18.804Z,95255.28
2023-02-27T17:07:45.924Z,95272.75
2023-02-27T17:10:17.983Z,95270.13
2023-02-27T17:12:46.990Z,95267.69
2023-02-27T17:15:15.125Z,95286.13
2023-02-27T17:17:42.147Z,95294.31
2023-02-27T17:20:11.289Z,95303.56
2023-02-27T17:22:40.654Z,95304.09
2023-02-27T17:25:09.139Z,95293.28
2023-02-27T17:27:36.122Z,95282.25
2023-02-27T17:30:03.848Z,95274.06
2023-02-27T17:32:31.840Z,95268.50
2023-02-27T17:34:59.362Z,95262.16
2023-02-27T17:37:27.260Z,95254.81
2023-02-27T17:39:55.442Z,95260.56
2023-02-27T17:42:25.718Z,95259.03
2023-02-27T17:44:52.875Z,95280.38
2023-02-27T17:47:19.686Z,95271.44
2023-02-27T17:49:47.219Z,95278.53
2023-02-27T17:52:14.366Z,95273.03
2023-02-27T17:54:41.283Z,95283.81
2023-02-27T17:57:10.452Z,95294.34
2023-02-27T17:59:37.461Z,95300.16
2023-02-27T18:02:04.548Z,95303.56
2023-02-27T18:04:31.269Z,95300.69
2023-02-27T18:06:58.223Z,95300.16
2023-02-27T18:09:24.942Z,95303.59
2023-02-27T18:11:51.893Z,95287.50
2023-02-27T18:14:18.628Z,95293.28
2023-02-27T18:16:45.594Z,95297.25
2023-02-27T18:19:12.444Z,95295.41
2023-02-27T18:21:39.524Z,95301.22
2023-02-27T18:24:06.452Z,95308.06
2023-02-27T18:26:33.477Z,95287.00
2023-02-27T18:29:09.003Z,95300.41
2023-02-27T18:31:37.520Z,95308.84
2023-02-27T18:34:05.107Z,95300.97
2023-02-27T18:36:32.682Z,95312.00
2023-02-27T18:39:00.721Z,95311.75
2023-02-27T18:41:29.138Z,95302.00
2023-02-27T18:43:56.178Z,95295.16
2023-02-27T18:46:23.005Z,95292.25
2023-02-27T18:48:50.269Z,95291.72
2023-02-27T18:51:17.921Z,95313.31
2023-02-27T18:53:48.116Z,95308.06
2023-02-27T18:56:20.851Z,95303.31
2023-02-27T18:58:48.627Z,95298.06
2023-02-27T19:01:30.783Z,95324.38
2023-02-27T19:04:03.694Z,95318.56
2023-02-27T19:06:36.277Z,95317.00
2023-02-27T19:09:07.847Z,95313.28
2023-02-27T19:11:35.795Z,95336.44
2023-02-27T19:14:04.578Z,95339.84
2023-02-27T19:16:32.359Z,95340.88
2023-02-27T19:19:01.247Z,95359.78
2023-02-27T19:21:28.662Z,95379.59
2023-02-27T19:23:57.262Z,95361.81
2023-02-27T19:26:26.681Z,95341.59
2023-02-27T19:28:55.268Z,95321.16
2023-02-27T19:31:24.092Z,95313.19
2023-02-27T19:33:51.540Z,95355.06
2023-02-27T19:36:21.009Z,95367.78
2023-02-27T19:38:48.385Z,95382.38
2023-02-27T19:41:16.908Z,95382.56
2023-02-27T19:43:44.506Z,95384.22
2023-02-27T19:46:16.646Z,95389.03
2023-02-27T19:48:44.012Z,95378.88
2023-02-27T19:51:13.926Z,95378.97
2023-02-27T19:53:42.462Z,95382.03
2023-02-27T19:56:15.164Z,95391.44
2023-02-27T19:58:42.361Z,95389.88
2023-02-27T20:01:09.982Z,95399.50
2023-02-27T20:03:38.078Z,95406.44
2023-02-27T20:06:06.965Z,95408.69
2023-02-27T20:08:34.245Z,95400.09
2023-02-27T20:11:04.417Z,95421.28
2023-02-27T20:13:31.820Z,95429.00
2023-02-27T20:16:07.464Z,95426.91
2023-02-27T20:18:35.690Z,95441.00
2023-02-27T20:21:06.954Z,95436.22
2023-02-27T20:23:35.943Z,95441.81
2023-02-27T20:26:20.123Z,95416.94
2023-02-27T20:28:49.344Z,95417.50
2023-02-27T20:31:22.111Z,95429.78
2023-02-27T20:33:49.425Z,95429.63
2023-02-27T20:36:16.816Z,95441.94
2023-02-27T20:38:44.407Z,95441.81
2023-02-27T20:41:14.111Z,95437.78
2023-02-27T20:43:43.262Z,95432.00
2023-02-27T20:46:15.981Z,95438.13
2023-02-27T20:48:43.424Z,95427.06
2023-02-27T20:51:22.605Z,95435.56
2023-02-27T20:53:51.612Z,95433.81
2023-02-27T20:56:21.420Z,95438.72
2023-02-27T20:58:48.679Z,95432.81
2023-02-27T21:01:16.566Z,95447.91
2023-02-27T21:03:45.139Z,95451.75
2023-02-27T21:06:14.962Z,95451.81
2023-02-27T21:08:45.868Z,95450.50
2023-02-27T21:11:15.647Z,95472.34
2023-02-27T21:13:42.903Z,95471.41
2023-02-27T21:16:12.684Z,95460.63
2023-02-27T21:18:39.510Z,95472.69
2023-02-27T21:21:08.679Z,95483.13
2023-02-27T21:23:41.364Z,95496.63
2023-02-27T21:26:37.828Z,95516.78
2023-02-27T21:29:19.271Z,95508.97
2023-02-27T21:31:51.210Z,95518.69
2023-02-27T21:34:24.588Z,95537.47
2023-02-27T21:36:52.458Z,95551.53
2023-02-27T21:39:24.208Z,95533.66
2023-02-27T21:41:51.146Z,95534.53
2023-02-27T21:44:21.695Z,95521.03
2023-02-27T21:46:48.447Z,95529.78
2023-02-27T21:49:27.091Z,95533.78
2023-02-27T21:51:54.704Z,95534.97
2023-02-27T21:54:22.011Z,95532.44
2023-02-27T21:56:49.570Z,95531.47
2023-02-27T21:59:17.668Z,95532.59
2023-02-27T22:01:48.773Z,95527.63
2023-02-27T22:04:17.444Z,95527.94
2023-02-27T22:06:44.756Z,95514.88
2023-02-27T22:09:11.706Z,95504.94
2023-02-27T22:11:41.142Z,95507.19
2023-02-27T22:14:09.793Z,95499.72
2023-02-27T22:16:36.625Z,95501.56
2023-02-27T22:19:18.795Z,95505.28
2023-02-27T22:21:46.300Z,95522.47
2023-02-27T22:24:13.808Z,95511.84
2023-02-27T22:26:42.553Z,95510.34
2023-02-27T22:29:09.334Z,95515.41
2023-02-27T22:31:38.537Z,95533.97
2023-02-27T22:34:12.268Z,95550.75
2023-02-27T22:36:41.728Z,95557.53
2023-02-27T22:39:08.570Z,95554.56
2023-02-27T22:41:38.371Z,95555.59
2023-02-27T22:44:06.198Z,95555.81
2023-02-27T22:46:36.174Z,95545.31
2023-02-27T22:49:06.729Z,95549.09
2023-02-27T22:51:33.925Z,95553.94
2023-02-27T22:54:03.188Z,95559.13
2023-02-27T22:56:30.736Z,95536.78
2023-02-27T22:58:57.671Z,95544.34
2023-02-27T23:01:31.539Z,95542.06
2023-02-27T23:04:01.573Z,95542.59
2023-02-27T23:06:31.455Z,95548.19
2023-02-27T23:08:59.450Z,95544.16
2023-02-27T23:11:26.879Z,95557.41
2023-02-27T23:13:54.014Z,95555.41
2023-02-27T23:16:21.002Z,95553.44
2023-02-27T23:18:50.542Z,95547.47
2023-02-27T23:21:19.966Z,95555.78
2023-02-27T23:23:47.737Z,95548.16
2023-02-27T23:26:14.568Z,95562.13
2023-02-27T23:28:41.888Z,95563.78
2023-02-27T23:31:09.271Z,95559.88
2023-02-27T23:33:36.532Z,95557.75
2023-02-27T23:36:04.348Z,95564.28
2023-02-27T23:38:31.256Z,95562.59
2023-02-27T23:40:58.546Z,95549.25
2023-02-27T23:43:25.363Z,95556.28
2023-02-27T23:45:52.078Z,95564.91
2023-02-27T23:48:21.914Z,95568.47
2023-02-27T23:50:49.001Z,95563.94
2023-02-27T23:53:15.973Z,95567.19
2023-02-27T23:55:43.856Z,95558.81
2023-02-27T23:58:11.273Z,95560.25
